Time;durP1;ratioP1;P1;durP2;ratioP2;P2;SDS_P1;SDS_P2;PMS_P1;PMS_P2;Temp;Humidity;BMP_temperature;BMP_pressure;BME280_temperature;BME280_humidity;BME280_pressure;Samples;Min_cycle;Max_cycle;Signal;HPM_P1;HPM_P2
2022/10/20 00:00:25;;;;;;;8.33;7.03;;;17.50;77.60;;;-142.21;100.00;112049.66;5114417;28;21001;-71
2022/10/20 00:02:52;;;;;;;8.73;6.83;;;17.50;77.60;;;-142.21;100.00;112049.66;5115450;28;20514;-71
2022/10/20 00:05:21;;;;;;;7.47;6.53;;;17.50;77.60;;;-142.21;100.00;112049.66;5115337;28;20453;-71
2022/10/20 00:07:48;;;;;;;8.60;7.70;;;17.50;78.30;;;-142.21;100.00;112049.66;5115235;28;20515;-70
2022/10/20 00:10:16;;;;;;;8.00;7.13;;;17.50;77.50;;;-142.21;100.00;112049.66;5115051;28;20502;-71
2022/10/20 00:12:43;;;;;;;8.23;6.80;;;17.50;77.50;;;-142.21;100.00;112049.66;5114152;28;20460;-71
2022/10/20 00:15:11;;;;;;;7.73;6.93;;;17.50;77.30;;;-142.21;100.00;112049.66;5114776;28;20498;-71
2022/10/20 00:17:38;;;;;;;9.73;6.50;;;17.50;77.30;;;-142.21;100.00;112049.66;5114369;28;20441;-70
2022/10/20 00:20:07;;;;;;;12.93;7.20;;;17.50;77.40;;;-142.21;100.00;112049.66;5115040;28;20932;-70
2022/10/20 00:22:35;;;;;;;9.53;7.20;;;17.50;77.40;;;-142.21;100.00;112049.66;5114307;28;20495;-70
2022/10/20 00:25:02;;;;;;;9.60;7.40;;;17.50;77.50;;;-142.21;100.00;112049.66;5114736;28;20938;-71
2022/10/20 00:27:30;;;;;;;7.40;6.17;;;17.50;77.20;;;-142.21;100.00;112049.66;5061454;28;20537;-71
2022/10/20 00:29:57;;;;;;;7.87;6.50;;;17.50;77.10;;;-142.21;100.00;112049.66;5114576;28;20572;-70
2022/10/20 00:32:24;;;;;;;10.67;7.37;;;17.50;77.10;;;-142.21;100.00;112049.66;5114031;28;20448;-70
2022/10/20 00:34:51;;;;;;;7.97;6.90;;;17.50;77.30;;;-142.21;100.00;112049.66;5115123;28;20532;-71
2022/10/20 00:37:18;;;;;;;8.23;7.03;;;17.50;77.00;;;-142.21;100.00;112049.66;5114661;28;20476;-71
2022/10/20 00:39:47;;;;;;;9.03;7.37;;;17.50;77.00;;;-142.21;100.00;112049.66;5114215;28;20754;-71
2022/10/20 00:42:16;;;;;;;8.53;6.53;;;17.50;76.80;;;-142.21;100.00;112049.66;5113976;28;20450;-71
2022/10/20 00:44:54;;;;;;;8.67;6.13;;;17.50;76.80;;;-142.21;100.00;112049.66;5114026;28;20449;-71
2022/10/20 00:47:35;;;;;;;8.57;7.07;;;17.50;77.00;;;-142.21;100.00;112049.66;5114996;28;20429;-70
2022/10/20 00:50:10;;;;;;;9.73;6.53;;;17.40;76.80;;;-142.21;100.00;112049.66;5114482;28;20549;-71
2022/10/20 00:52:40;;;;;;;8.40;6.90;;;17.40;77.00;;;-142.21;100.00;112049.66;5061216;28;20445;-71
2022/10/20 00:55:12;;;;;;;6.73;6.13;;;17.50;77.00;;;-142.21;100.00;112049.66;5114644;28;20800;-70
2022/10/20 00:57:42;;;;;;;7.67;6.50;;;17.40;77.00;;;-142.21;100.00;112049.66;5113712;28;20514;-70
2022/10/20 01:00:11;;;;;;;7.73;6.73;;;17.40;77.20;;;-142.21;100.00;112049.66;5062200;28;20464;-70
2022/10/20 01:02:38;;;;;;;7.60;6.63;;;17.40;77.20;;;-142.21;100.00;112049.66;5113083;28;20965;-70
2022/10/20 01:05:08;;;;;;;7.80;7.00;;;17.40;77.20;;;-142.21;100.00;112049.66;5113892;28;20438;-72
2022/10/20 01:07:35;;;;;;;8.53;6.63;;;17.40;77.30;;;-142.21;100.00;112049.66;5113046;28;20446;-72
2022/10/20 01:10:06;;;;;;;8.00;6.43;;;17.40;77.30;;;-142.21;100.00;112049.66;5113771;28;20572;-71
2022/10/20 01:12:47;;;;;;;10.33;6.83;;;17.40;77.20;;;-142.21;100.00;112049.66;5113112;28;20807;-71
2022/10/20 01:15:27;;;;;;;8.73;7.00;;;17.40;77.30;;;-142.21;100.00;112049.66;5113787;28;20432;-71
2022/10/20 01:18:04;;;;;;;8.50;6.97;;;17.40;77.20;;;-142.21;100.00;112049.66;5113649;28;20563;-72
2022/10/20 01:21:16;;;;;;;8.43;6.37;;;17.40;77.30;;;-142.21;100.00;112049.66;5113245;28;20422;-71
2022/10/20 01:24:16;;;;;;;11.07;6.60;;;17.40;77.40;;;-142.21;100.00;112049.66;5093008;28;20780;-71
2022/10/20 01:27:27;;;;;;;9.37;7.13;;;17.40;77.30;;;-142.21;100.00;112049.66;5091141;28;20442;-71
2022/10/20 01:30:07;;;;;;;8.10;6.80;;;17.40;77.50;;;-142.21;100.00;112049.66;5113491;28;20480;-72
2022/10/20 01:33:10;;;;;;;8.37;6.87;;;17.40;77.40;;;-142.21;100.00;112049.66;5113059;28;20465;-70
2022/10/20 01:35:54;;;;;;;7.93;6.60;;;17.30;77.30;;;-142.21;100.00;112049.66;5108806;28;20539;-71
2022/10/20 01:38:35;;;;;;;11.60;6.93;;;17.30;77.50;;;-142.21;100.00;112049.66;5113385;28;20422;-71
2022/10/20 01:41:09;;;;;;;8.93;7.37;;;17.30;77.50;;;-142.21;100.00;112049.66;5111856;28;20937;-70
2022/10/20 01:43:43;;;;;;;10.03;6.90;;;17.30;77.50;;;-142.21;100.00;112049.66;5092318;28;20513;-70
2022/10/20 01:46:12;;;;;;;7.40;6.60;;;17.30;77.60;;;-142.21;100.00;112049.66;5094228;28;20480;-71
2022/10/20 01:48:41;;;;;;;7.37;6.67;;;17.30;77.50;;;-142.21;100.00;112049.66;5112309;28;20485;-72
2022/10/20 01:51:10;;;;;;;9.77;7.27;;;17.40;77.50;;;-142.21;100.00;112049.66;5112915;28;21319;-72
2022/10/20 01:53:37;;;;;;;7.63;6.83;;;17.40;77.40;;;-142.21;100.00;112049.66;5112604;28;20445;-70
2022/10/20 01:56:12;;;;;;;9.83;7.90;;;17.30;77.30;;;-142.21;100.00;112049.66;5113258;28;20520;-71
2022/10/20 01:59:28;;;;;;;9.83;6.90;;;17.30;77.50;;;-142.21;100.00;112049.66;5112990;28;20424;-71
2022/10/20 02:02:22;;;;;;;11.53;7.20;;;17.30;77.60;;;-142.21;100.00;112049.66;5112978;28;20434;-71
2022/10/20 02:05:18;;;;;;;9.77;7.07;;;17.30;77.60;;;-142.21;100.00;112049.66;5112772;28;20417;-71
2022/10/20 02:07:46;;;;;;;8.60;7.23;;;17.30;77.50;;;-142.21;100.00;112049.66;5112412;28;20524;-71
2022/10/20 02:10:19;;;;;;;11.53;7.40;;;17.30;77.40;;;-142.21;100.00;112049.66;5112768;28;20484;-70
2022/10/20 02:12:53;;;;;;;8.47;7.57;;;17.30;77.50;;;-142.21;100.00;112049.66;5106352;28;20437;-72
2022/10/20 02:15:27;;;;;;;15.70;7.40;;;17.30;77.40;;;-142.21;100.00;112049.66;5113266;28;20763;-72
2022/10/20 02:18:03;;;;;;;9.27;7.70;;;17.30;77.40;;;-142.21;100.00;112049.66;5112765;28;20844;-72
2022/10/20 02:20:32;;;;;;;9.07;7.07;;;17.30;77.30;;;-142.21;100.00;112049.66;5112531;28;20418;-72
2022/10/20 02:23:02;;;;;;;9.07;7.10;;;17.30;77.20;;;-142.21;100.00;112049.66;5112393;28;20473;-72
2022/10/20 02:25:32;;;;;;;9.93;7.90;;;17.30;77.40;;;-142.21;100.00;112049.66;5112097;28;20426;-72
2022/10/20 02:28:03;;;;;;;10.30;6.90;;;17.30;77.40;;;-142.21;100.00;112049.66;5112910;28;20528;-72
2022/10/20 02:30:32;;;;;;;9.20;7.77;;;17.20;77.50;;;-142.21;100.00;112049.66;5111997;28;20485;-72
2022/10/20 02:33:00;;;;;;;9.20;7.90;;;17.20;77.40;;;-142.21;100.00;112049.66;5112166;28;20510;-72
2022/10/20 02:35:31;;;;;;;8.23;7.27;;;17.20;77.60;;;-142.21;100.00;112049.66;5112225;28;20445;-72
2022/10/20 02:37:59;;;;;;;9.10;7.30;;;17.20;77.50;;;-142.21;100.00;112049.66;5112783;28;20428;-72
2022/10/20 02:40:27;;;;;;;9.50;8.00;;;17.20;77.40;;;-142.21;100.00;112049.66;5112315;28;20532;-71
2022/10/20 02:42:57;;;;;;;9.17;7.47;;;17.30;77.40;;;-142.21;100.00;112049.66;5112491;28;20441;-71
2022/10/20 02:45:24;;;;;;;9.47;7.63;;;17.30;77.30;;;-142.21;100.00;112049.66;5112533;28;20925;-72
2022/10/20 02:47:53;;;;;;;10.23;7.67;;;17.30;77.20;;;-142.21;100.00;112049.66;5111938;28;20440;-71
2022/10/20 02:50:20;;;;;;;10.27;7.37;;;17.20;77.20;;;-142.21;100.00;112049.66;5112521;28;20568;-71
2022/10/20 02:52:47;;;;;;;9.57;7.33;;;17.20;77.20;;;-142.21;100.00;112049.66;5111317;28;20438;-71
2022/10/20 02:55:14;;;;;;;9.27;7.47;;;17.20;77.20;;;-142.21;100.00;112049.66;5112591;28;20828;-71
2022/10/20 02:57:41;;;;;;;10.03;7.93;;;17.20;77.30;;;-142.21;100.00;112049.66;5111996;28;20528;-71
2022/10/20 03:00:10;;;;;;;9.73;8.40;;;17.20;77.20;;;-142.21;100.00;112049.66;5112828;28;20443;-71
2022/10/20 03:02:37;;;;;;;8.20;7.23;;;17.20;77.20;;;-142.21;100.00;112049.66;5115933;28;20775;-71
2022/10/20 03:05:07;;;;;;;11.23;7.83;;;17.20;77.20;;;-142.21;100.00;112049.66;5116635;28;20484;-71
2022/10/20 03:07:34;;;;;;;11.03;8.40;;;17.20;77.20;;;-142.21;100.00;112049.66;5115268;28;20444;-71
2022/10/20 03:10:01;;;;;;;8.80;7.83;;;17.20;77.20;;;-142.21;100.00;112049.66;5116280;28;20572;-71
2022/10/20 03:12:28;;;;;;;8.20;7.40;;;17.20;77.20;;;-142.21;100.00;112049.66;5116395;28;20448;-71
2022/10/20 03:14:55;;;;;;;8.30;7.20;;;17.20;77.20;;;-142.21;100.00;112049.66;5115673;28;20495;-71
2022/10/20 03:17:22;;;;;;;10.40;7.73;;;17.20;77.20;;;-142.21;100.00;112049.66;5115957;28;20498;-72
2022/10/20 03:19:49;;;;;;;8.90;7.03;;;17.20;77.30;;;-142.21;100.00;112049.66;5115716;28;20437;-71
2022/10/20 03:22:18;;;;;;;9.23;7.53;;;17.20;77.40;;;-142.21;100.00;112049.66;5115136;28;20447;-71
2022/10/20 03:24:45;;;;;;;9.37;8.17;;;17.20;77.50;;;-142.21;100.00;112049.66;5115274;28;20477;-71
2022/10/20 03:27:13;;;;;;;11.13;7.93;;;17.20;77.60;;;-142.21;100.00;112049.66;5116147;28;20521;-71
2022/10/20 03:29:43;;;;;;;8.90;8.00;;;17.20;77.40;;;-142.21;100.00;112049.66;5115248;28;20489;-71
2022/10/20 03:32:12;;;;;;;12.63;8.63;;;17.20;77.40;;;-142.21;100.00;112049.66;5115612;28;20517;-71
2022/10/20 03:34:39;;;;;;;9.40;7.60;;;17.20;77.50;;;-142.21;100.00;112049.66;5115072;28;20448;-70
2022/10/20 03:37:07;;;;;;;9.53;7.63;;;17.20;77.60;;;-142.21;100.00;112049.66;5115518;28;20452;-71
2022/10/20 03:39:37;;;;;;;10.47;7.83;;;17.20;77.60;;;-142.21;100.00;112049.66;5115180;28;20525;-72
2022/10/20 03:42:04;;;;;;;9.07;7.43;;;17.20;77.60;;;-142.21;100.00;112049.66;5115754;28;20441;-71
2022/10/20 03:44:31;;;;;;;10.83;8.17;;;17.20;77.60;;;-142.21;100.00;112049.66;5115483;28;20441;-72
2022/10/20 03:47:01;;;;;;;10.40;7.80;;;17.20;77.30;;;-142.21;100.00;112049.66;5115854;28;20465;-70
2022/10/20 03:49:30;;;;;;;9.50;8.50;;;17.20;77.30;;;-142.21;100.00;112049.66;5115221;28;20477;-71
2022/10/20 03:51:57;;;;;;;9.77;8.13;;;17.20;77.40;;;-142.21;100.00;112049.66;5115586;28;20441;-72
2022/10/20 03:54:24;;;;;;;12.00;7.90;;;17.20;77.40;;;-142.21;100.00;112049.66;5115792;28;20437;-71
2022/10/20 03:56:53;;;;;;;8.70;7.27;;;17.20;77.50;;;-142.21;100.00;112049.66;5114952;28;20515;-71
2022/10/20 03:59:20;;;;;;;9.17;7.53;;;17.20;78.30;;;-142.21;100.00;112049.66;5115086;28;20469;-71
2022/10/20 04:01:47;;;;;;;11.47;8.57;;;17.20;77.70;;;-142.21;100.00;112049.66;5114787;28;20448;-71
2022/10/20 04:04:15;;;;;;;9.30;7.80;;;17.20;77.70;;;-142.21;100.00;112049.66;5115210;28;20445;-71
2022/10/20 04:06:42;;;;;;;7.93;7.13;;;17.20;77.70;;;-142.21;100.00;112049.66;5114309;28;20460;-71
2022/10/20 04:09:09;;;;;;;9.83;8.00;;;17.20;77.90;;;-142.21;100.00;112049.66;5115403;28;21295;-71
2022/10/20 04:11:37;;;;;;;9.33;7.40;;;17.20;77.90;;;-142.21;100.00;112049.66;5114684;28;20528;-71
2022/10/20 04:14:06;;;;;;;9.57;7.97;;;17.10;77.90;;;-142.21;100.00;112049.66;5114316;28;20473;-71
2022/10/20 04:16:33;;;;;;;8.70;7.77;;;17.20;78.00;;;-142.21;100.00;112049.66;5115020;28;20446;-70
2022/10/20 04:19:00;;;;;;;9.33;7.47;;;17.10;78.00;;;-142.21;100.00;112049.66;5114601;28;20471;-71
2022/10/20 04:21:27;;;;;;;10.43;7.80;;;17.10;78.00;;;-142.21;100.00;112049.66;5115410;28;20527;-71
2022/10/20 04:23:54;;;;;;;10.60;8.23;;;17.00;77.90;;;-142.21;100.00;112049.66;5114381;28;20452;-71
2022/10/20 04:26:21;;;;;;;8.90;7.90;;;17.10;78.00;;;-142.21;100.00;112049.66;5114369;28;20921;-72
2022/10/20 04:28:48;;;;;;;12.90;8.20;;;17.10;78.10;;;-142.21;100.00;112049.66;5113974;28;20461;-72
2022/10/20 04:31:20;;;;;;;9.43;7.77;;;17.10;78.10;;;-142.21;100.00;112049.66;5115025;28;20568;-72
2022/10/20 04:33:47;;;;;;;10.10;8.57;;;17.10;78.20;;;-142.21;100.00;112049.66;5113940;28;20422;-72
2022/10/20 04:36:14;;;;;;;9.80;7.73;;;17.10;78.00;;;-142.21;100.00;112049.66;5114969;28;20925;-72
2022/10/20 04:38:41;;;;;;;8.57;7.67;;;17.00;77.90;;;-142.21;100.00;112049.66;5114184;28;20449;-72
2022/10/20 04:41:09;;;;;;;9.27;7.77;;;17.00;77.90;;;-142.21;100.00;112049.66;5114271;28;20448;-72
2022/10/20 04:43:37;;;;;;;11.00;8.20;;;17.00;77.90;;;-142.21;100.00;112049.66;5113783;28;20434;-72
2022/10/20 04:46:07;;;;;;;9.80;7.63;;;17.00;77.90;;;-142.21;100.00;112049.66;5114851;28;20476;-72
2022/10/20 04:48:36;;;;;;;9.53;8.47;;;17.00;77.90;;;-142.21;100.00;112049.66;5114454;28;20437;-71
2022/10/20 04:51:06;;;;;;;9.80;8.20;;;17.00;78.00;;;-142.21;100.00;112049.66;5114206;28;20478;-71
2022/10/20 04:53:34;;;;;;;12.53;8.07;;;17.00;78.00;;;-142.21;100.00;112049.66;5114151;28;20432;-71
2022/10/20 04:56:03;;;;;;;8.90;7.80;;;17.00;78.00;;;-142.21;100.00;112049.66;5114486;28;20445;-71
2022/10/20 04:58:30;;;;;;;15.37;9.00;;;17.00;78.00;;;-142.21;100.00;112049.66;5114462;28;20527;-71
2022/10/20 05:01:01;;;;;;;10.20;9.03;;;17.00;78.60;;;-142.21;100.00;112049.66;5112960;28;20442;-71
2022/10/20 05:03:29;;;;;;;11.50;8.00;;;17.00;78.20;;;-142.21;100.00;112049.66;5113915;28;20418;-70
2022/10/20 05:06:10;;;;;;;12.70;8.73;;;16.90;78.10;;;-142.21;100.00;112049.66;5113205;28;20480;-71
2022/10/20 05:08:37;;;;;;;12.07;8.07;;;16.90;78.30;;;-142.21;100.00;112049.66;5113685;28;20472;-70
2022/10/20 05:11:05;;;;;;;10.57;8.20;;;16.90;78.30;;;-142.21;100.00;112049.66;5113431;28;20538;-70
2022/10/20 05:13:32;;;;;;;11.77;8.90;;;16.90;78.30;;;-142.21;100.00;112049.66;5114101;28;20443;-71
2022/10/20 05:15:59;;;;;;;10.07;8.57;;;16.90;78.40;;;-142.21;100.00;112049.66;5113208;28;20477;-71
2022/10/20 05:18:26;;;;;;;12.77;8.80;;;16.90;78.50;;;-142.21;100.00;112049.66;5113376;28;20556;-72
2022/10/20 05:20:54;;;;;;;12.13;8.40;;;16.90;78.70;;;-142.21;100.00;112049.66;5113141;28;20533;-72
2022/10/20 05:23:22;;;;;;;10.90;8.50;;;16.90;78.70;;;-142.21;100.00;112049.66;5113244;28;20448;-72
2022/10/20 05:25:50;;;;;;;9.13;7.80;;;16.90;78.70;;;-142.21;100.00;112049.66;5112671;28;20437;-72
2022/10/20 05:28:17;;;;;;;9.93;8.20;;;16.90;78.70;;;-142.21;100.00;112049.66;5113773;28;20507;-72
2022/10/20 05:30:44;;;;;;;9.37;8.37;;;16.90;78.70;;;-142.21;100.00;112049.66;5112695;28;21052;-71
2022/10/20 05:33:11;;;;;;;11.97;8.27;;;16.90;78.60;;;-142.21;100.00;112049.66;5113473;28;20437;-71
2022/10/20 05:35:39;;;;;;;8.93;7.93;;;16.90;78.60;;;-142.21;100.00;112049.66;5112994;28;20540;-71
2022/10/20 05:38:06;;;;;;;8.70;7.63;;;16.80;78.50;;;-142.21;100.00;112049.66;5113391;28;20437;-72
2022/10/20 05:40:34;;;;;;;9.60;8.43;;;16.80;78.50;;;-142.21;100.00;112049.66;5113271;28;20526;-72
2022/10/20 05:43:02;;;;;;;10.50;8.50;;;16.80;78.60;;;-142.21;100.00;112049.66;5112586;28;20437;-71
2022/10/20 05:45:29;;;;;;;11.10;8.27;;;16.80;78.60;;;-142.21;100.00;112049.66;5112548;28;21017;-71
2022/10/20 05:47:56;;;;;;;9.47;8.03;;;16.80;78.70;;;-142.21;100.00;112049.66;5112772;28;20533;-71
2022/10/20 05:50:23;;;;;;;10.80;8.17;;;16.80;78.80;;;-142.21;100.00;112049.66;5113242;28;20561;-71
2022/10/20 05:52:51;;;;;;;11.77;9.37;;;16.80;78.80;;;-142.21;100.00;112049.66;5112897;28;20437;-72
2022/10/20 05:55:18;;;;;;;13.57;9.00;;;16.80;78.70;;;-142.21;100.00;112049.66;5112516;28;20446;-72
2022/10/20 05:57:50;;;;;;;11.70;9.20;;;16.80;78.80;;;-142.21;100.00;112049.66;5112867;28;20448;-72
2022/10/20 06:00:28;;;;;;;11.40;8.80;;;16.80;78.90;;;-142.21;100.00;112049.66;5112761;28;20422;-71
2022/10/20 06:02:56;;;;;;;10.60;8.73;;;16.80;78.80;;;-142.21;100.00;112049.66;5113021;28;20441;-71
2022/10/20 06:05:23;;;;;;;10.57;8.87;;;16.80;78.70;;;-142.21;100.00;112049.66;5112996;28;20542;-70
2022/10/20 06:07:54;;;;;;;11.47;9.27;;;16.80;78.80;;;-142.21;100.00;112049.66;5112204;28;20437;-70
2022/10/20 06:10:21;;;;;;;10.40;8.60;;;16.70;78.80;;;-142.21;100.00;112049.66;5112805;28;20474;-70
2022/10/20 06:12:49;;;;;;;11.40;8.63;;;16.70;78.80;;;-142.21;100.00;112049.66;5111828;28;20484;-70
2022/10/20 06:15:17;;;;;;;11.70;8.13;;;16.80;79.00;;;-142.21;100.00;112049.66;5112545;28;20438;-70
2022/10/20 06:17:47;;;;;;;10.37;8.70;;;16.70;78.90;;;-142.21;100.00;112049.66;5112039;28;20484;-70
2022/10/20 06:20:14;;;;;;;11.47;8.17;;;16.80;79.10;;;-142.21;100.00;112049.66;5112413;28;20432;-70
2022/10/20 06:22:41;;;;;;;12.33;9.13;;;16.70;78.90;;;-142.21;100.00;112049.66;5112460;28;20477;-69
2022/10/20 06:25:09;;;;;;;15.77;9.83;;;16.70;79.10;;;-142.21;100.00;112049.66;5112677;28;20441;-70
2022/10/20 06:27:36;;;;;;;10.10;8.83;;;16.80;79.30;;;-142.21;100.00;112049.66;5112446;28;20444;-70
2022/10/20 06:30:06;;;;;;;10.00;8.67;;;16.80;79.20;;;-142.21;100.00;112049.66;5111750;28;20488;-70
2022/10/20 06:32:33;;;;;;;9.80;8.70;;;16.80;79.20;;;-142.21;100.00;112049.66;5112649;28;20529;-70
2022/10/20 06:35:01;;;;;;;14.47;9.00;;;16.80;79.10;;;-142.21;100.00;112049.66;5111737;28;20728;-70
2022/10/20 06:37:28;;;;;;;9.97;8.63;;;16.80;79.20;;;-142.21;100.00;112049.66;5111411;28;20993;-70
2022/10/20 06:39:55;;;;;;;10.90;9.03;;;16.80;79.30;;;-142.21;100.00;112049.66;5111477;28;20532;-69
2022/10/20 06:42:22;;;;;;;11.23;9.63;;;16.90;79.20;;;-142.21;100.00;112049.66;5112330;28;20452;-70
2022/10/20 06:44:49;;;;;;;15.03;9.20;;;16.90;79.10;;;-142.21;100.00;112049.66;5111960;28;20553;-70
2022/10/20 06:47:18;;;;;;;12.47;9.17;;;16.90;79.10;;;-142.21;100.00;112049.66;5112314;28;20524;-70
2022/10/20 06:49:48;;;;;;;11.35;9.25;;;16.90;79.10;;;-142.21;100.00;112049.66;5111635;28;20528;-70
2022/10/20 06:52:15;;;;;;;12.43;9.17;;;17.00;79.20;;;-142.21;100.00;112049.66;5112468;28;20441;-70
2022/10/20 06:54:43;;;;;;;10.23;8.40;;;17.00;79.10;;;-142.21;100.00;112049.66;5111840;28;20800;-70
2022/10/20 06:57:10;;;;;;;16.77;9.30;;;17.00;78.90;;;-142.21;100.00;112049.66;5112561;28;20536;-70
2022/10/20 06:59:37;;;;;;;10.80;8.87;;;17.10;78.60;;;-142.21;100.00;112049.66;5111951;28;20473;-71
2022/10/20 07:02:05;;;;;;;10.23;8.63;;;17.10;78.40;;;-142.21;100.00;112049.66;5111900;28;20561;-70
2022/10/20 07:04:36;;;;;;;15.33;9.43;;;17.10;78.40;;;-142.21;100.00;112049.66;5112717;28;20473;-71
2022/10/20 07:07:03;;;;;;;11.73;8.43;;;17.10;78.30;;;-142.21;100.00;112049.66;5112043;28;20850;-70
2022/10/20 07:09:30;;;;;;;10.43;8.87;;;17.20;78.30;;;-142.21;100.00;112049.66;5112273;28;20565;-70
2022/10/20 07:11:57;;;;;;;10.83;8.77;;;17.20;78.20;;;-142.21;100.00;112049.66;5111515;28;20562;-71
2022/10/20 07:14:25;;;;;;;9.07;7.77;;;17.20;78.10;;;-142.21;100.00;112049.66;5112056;28;20525;-69
2022/10/20 07:16:52;;;;;;;11.13;8.40;;;17.20;78.20;;;-142.21;100.00;112049.66;5125433;28;20476;-69
2022/10/20 07:19:19;;;;;;;10.40;8.53;;;17.20;78.10;;;-142.21;100.00;112049.66;5135245;28;20458;-70
2022/10/20 07:21:48;;;;;;;8.77;7.83;;;17.30;78.00;;;-142.21;100.00;112049.66;5131733;28;20422;-70
2022/10/20 07:24:15;;;;;;;10.90;8.23;;;17.30;77.90;;;-142.21;100.00;112049.66;5112429;28;20445;-70
2022/10/20 07:26:43;;;;;;;9.27;7.67;;;17.40;78.00;;;-142.21;100.00;112049.66;5111797;28;20480;-71
2022/10/20 07:29:11;;;;;;;9.90;7.27;;;17.40;78.00;;;-142.21;100.00;112049.66;5111858;28;20550;-71
2022/10/20 07:31:42;;;;;;;7.90;7.10;;;17.50;78.00;;;-142.21;100.00;112049.66;5112431;28;20644;-70
2022/10/20 07:34:11;;;;;;;10.40;7.97;;;17.50;77.90;;;-142.21;100.00;112049.66;5112133;28;20468;-71
2022/10/20 07:36:41;;;;;;;10.50;7.60;;;17.60;77.70;;;-142.21;100.00;112049.66;5112193;28;20449;-69
2022/10/20 07:39:13;;;;;;;9.10;7.23;;;17.60;77.60;;;-142.21;100.00;112049.66;5112302;28;20529;-71
2022/10/20 07:41:42;;;;;;;9.50;7.90;;;17.60;77.50;;;-142.21;100.00;112049.66;5111583;28;20429;-70
2022/10/20 07:44:10;;;;;;;10.17;8.10;;;17.70;77.50;;;-142.21;100.00;112049.66;5112419;28;20481;-69
2022/10/20 07:46:37;;;;;;;12.27;8.30;;;17.70;77.30;;;-142.21;100.00;112049.66;5112402;28;20488;-70
2022/10/20 07:49:04;;;;;;;10.40;7.30;;;17.80;77.30;;;-142.21;100.00;112049.66;5114835;28;20776;-70
2022/10/20 07:51:33;;;;;;;9.40;7.90;;;17.80;77.30;;;-142.21;100.00;112049.66;5115770;28;20564;-70
2022/10/20 07:54:05;;;;;;;9.73;7.20;;;17.80;77.10;;;-142.21;100.00;112049.66;5115446;28;20441;-71
2022/10/20 07:56:37;;;;;;;12.17;7.53;;;17.90;77.20;;;-142.21;100.00;112049.66;5115556;28;20432;-71
2022/10/20 07:59:05;;;;;;;10.43;7.40;;;18.00;77.00;;;-142.21;100.00;112049.66;5114788;28;20223;-70
2022/10/20 08:01:33;;;;;;;11.17;7.30;;;18.00;77.00;;;-142.21;100.00;112049.66;5115222;28;20524;-71
2022/10/20 08:04:00;;;;;;;9.83;7.33;;;18.20;76.90;;;-142.21;100.00;112049.66;5115094;28;20476;-71
2022/10/20 08:06:28;;;;;;;10.53;7.67;;;18.20;76.70;;;-142.21;100.00;112049.66;5115062;28;20453;-70
2022/10/20 08:08:55;;;;;;;10.03;7.43;;;18.40;76.70;;;-142.21;100.00;112049.66;5114570;28;20288;-70
2022/10/20 08:11:23;;;;;;;10.67;7.30;;;18.40;76.30;;;-142.21;100.00;112049.66;5114785;28;20510;-70
2022/10/20 08:13:52;;;;;;;9.70;8.47;;;18.60;76.30;;;-142.21;100.00;112049.66;5114960;28;20441;-70
2022/10/20 08:16:20;;;;;;;9.60;7.87;;;18.70;76.00;;;-142.21;100.00;112049.66;5115324;28;20260;-71
2022/10/20 08:18:48;;;;;;;9.57;8.20;;;18.80;75.90;;;-142.21;100.00;112049.66;5114330;28;20715;-70
2022/10/20 08:21:18;;;;;;;13.40;7.80;;;19.00;75.50;;;-142.21;100.00;112049.66;5114759;28;20442;-70
2022/10/20 08:23:48;;;;;;;9.23;7.40;;;19.10;75.30;;;-142.21;100.00;112049.66;5115296;28;20424;-69
2022/10/20 08:26:20;;;;;;;10.70;7.50;;;19.20;75.40;;;-142.21;100.00;112049.66;5114492;28;20257;-69
2022/10/20 08:28:48;;;;;;;10.43;7.53;;;19.30;75.10;;;-142.21;100.00;112049.66;5114398;28;20224;-71
2022/10/20 08:31:17;;;;;;;8.00;7.00;;;19.40;75.10;;;-142.21;100.00;112049.66;5114849;28;20266;-70
2022/10/20 08:33:44;;;;;;;8.87;7.40;;;19.50;74.70;;;-142.21;100.00;112049.66;5114755;28;20207;-71
2022/10/20 08:36:14;;;;;;;9.90;6.80;;;19.60;74.60;;;-142.21;100.00;112049.66;5115013;28;20208;-70
2022/10/20 08:38:43;;;;;;;8.27;6.50;;;19.80;74.30;;;-142.21;100.00;112049.66;5114520;28;20203;-71
2022/10/20 08:41:18;;;;;;;8.10;6.87;;;20.00;73.90;;;-142.21;100.00;112049.66;5113484;28;20707;-70
2022/10/20 08:43:48;;;;;;;9.57;7.10;;;20.10;74.40;;;-142.21;99.99;112049.66;5114633;28;20234;-70
2022/10/20 08:46:20;;;;;;;8.50;7.27;;;20.30;73.10;;;-142.21;97.24;112049.66;5114706;28;20219;-70
2022/10/20 08:48:48;;;;;;;11.57;7.40;;;20.30;71.90;;;-142.21;98.01;112049.66;5114056;28;20202;-70
2022/10/20 08:51:20;;;;;;;8.30;7.43;;;20.40;72.00;;;-142.21;97.43;112049.66;5114319;28;20224;-70
2022/10/20 08:53:52;;;;;;;9.33;8.43;;;20.20;71.50;;;-142.21;97.59;112049.66;5113714;28;20280;-70
2022/10/20 08:56:24;;;;;;;10.97;7.33;;;20.10;71.50;;;-142.21;98.54;112049.66;5114847;28;20644;-70
2022/10/20 08:58:52;;;;;;;10.27;7.10;;;20.00;72.50;;;-142.21;98.51;112049.66;5113753;28;20220;-71
2022/10/20 09:01:25;;;;;;;8.90;7.43;;;20.00;72.60;;;-142.21;98.34;112049.66;5114137;28;20199;-70
2022/10/20 09:03:57;;;;;;;10.13;7.27;;;20.10;72.30;;;-142.21;98.30;112049.66;5113331;28;20231;-71
2022/10/20 09:06:25;;;;;;;9.03;7.43;;;20.20;72.20;;;-142.21;96.87;112049.66;5114376;28;20701;-71
2022/10/20 09:08:54;;;;;;;9.67;6.90;;;20.30;71.40;;;-142.21;96.84;112049.66;5113085;28;20246;-70
2022/10/20 09:11:28;;;;;;;7.40;6.43;;;20.20;71.50;;;-142.21;97.90;112049.66;5114130;28;20234;-70
2022/10/20 09:13:56;;;;;;;8.27;6.93;;;20.30;72.00;;;-142.21;94.97;112049.66;5113366;28;20195;-69
2022/10/20 09:16:32;;;;;;;12.00;8.47;;;20.50;70.70;;;-142.21;94.87;112049.66;5114158;28;20210;-70
2022/10/20 09:19:01;;;;;;;9.90;7.43;;;20.50;70.40;;;-142.21;95.81;112049.66;5112891;28;20231;-69
2022/10/20 09:21:31;;;;;;;10.73;7.30;;;20.40;70.50;;;-142.21;96.59;112049.66;5113892;28;20203;-71
2022/10/20 09:24:04;;;;;;;9.30;7.43;;;20.50;71.10;;;-142.21;95.04;112049.66;5113342;28;20208;-70
2022/10/20 09:26:37;;;;;;;7.90;6.73;;;20.50;70.10;;;-142.21;96.30;112049.66;5113690;28;20203;-70
2022/10/20 09:29:07;;;;;;;9.03;7.50;;;20.40;70.80;;;-142.21;96.32;112049.66;5113198;28;20573;-72
2022/10/20 09:31:39;;;;;;;9.80;7.23;;;20.40;70.80;;;-142.21;96.66;112049.66;5113788;28;20224;-70
2022/10/20 09:34:22;;;;;;;9.37;7.50;;;20.30;70.70;;;-142.21;97.08;112049.66;5113290;28;20575;-71
2022/10/20 09:36:52;;;;;;;11.10;7.67;;;20.30;70.90;;;-142.21;97.39;112049.66;5113889;28;20200;-70
2022/10/20 09:39:23;;;;;;;8.97;6.93;;;20.30;71.30;;;-142.21;98.04;112049.66;5112934;28;20188;-70
2022/10/20 09:42:01;;;;;;;10.67;7.77;;;20.30;71.30;;;-142.21;97.52;112049.66;5112675;28;20200;-70
2022/10/20 09:44:34;;;;;;;9.67;8.10;;;20.30;71.10;;;-142.21;96.90;112049.66;5113677;28;20596;-70
2022/10/20 09:47:03;;;;;;;9.37;7.60;;;20.30;70.80;;;-142.21;96.97;112049.66;5060235;28;20260;-70
2022/10/20 09:49:36;;;;;;;8.77;7.13;;;20.30;70.80;;;-142.21;97.23;112049.66;5113129;28;20206;-71
2022/10/20 09:52:18;;;;;;;8.07;7.27;;;20.10;70.90;;;-142.21;97.30;112049.66;5112223;28;20216;-70
2022/10/20 09:54:49;;;;;;;8.63;7.33;;;20.10;71.00;;;-142.21;98.13;112049.66;5113562;28;20184;-70
2022/10/20 09:57:20;;;;;;;9.40;7.13;;;20.00;71.30;;;-142.21;98.37;112049.66;5113376;28;20206;-71
2022/10/20 09:59:51;;;;;;;11.47;8.30;;;20.10;71.60;;;-142.21;97.58;112049.66;5113421;28;20580;-69
2022/10/20 10:02:32;;;;;;;8.13;7.33;;;20.10;71.20;;;-142.21;98.57;112049.66;5113275;28;20192;-69
2022/10/20 10:05:19;;;;;;;9.43;6.87;;;20.10;71.50;;;-142.21;98.54;112049.66;5112739;28;20677;-69